sensor_id;sensor_type;location;lat;lon;timestamp;P1;durP1;ratioP1;P2;durP2;ratioP2
11034;SDS011;5571;48.110;-1.706;2024-02-21T00:00:46;5.27;;;2.80;;
11034;SDS011;5571;48.110;-1.706;2024-02-21T00:03:12;3.13;;;2.70;;
11034;SDS011;5571;48.110;-1.706;2024-02-21T00:05:37;4.27;;;2.60;;
11034;SDS011;5571;48.110;-1.706;2024-02-21T00:08:03;5.17;;;2.40;;
11034;SDS011;5571;48.110;-1.706;2024-02-21T00:10:29;5.37;;;2.63;;
11034;SDS011;5571;48.110;-1.706;2024-02-21T00:12:56;3.03;;;2.07;;
11034;SDS011;5571;48.110;-1.706;2024-02-21T00:15:23;4.10;;;2.40;;
11034;SDS011;5571;48.110;-1.706;2024-02-21T00:17:49;3.03;;;2.30;;
11034;SDS011;5571;48.110;-1.706;2024-02-21T00:20:14;3.40;;;2.40;;
11034;SDS011;5571;48.110;-1.706;2024-02-21T00:22:40;4.07;;;2.50;;
11034;SDS011;5571;48.110;-1.706;2024-02-21T00:25:06;4.20;;;2.63;;
11034;SDS011;5571;48.110;-1.706;2024-02-21T00:27:32;5.17;;;2.33;;
11034;SDS011;5571;48.110;-1.706;2024-02-21T00:29:57;3.40;;;2.60;;
11034;SDS011;5571;48.110;-1.706;2024-02-21T00:32:23;3.80;;;2.60;;
11034;SDS011;5571;48.110;-1.706;2024-02-21T00:34:48;3.37;;;2.60;;
11034;SDS011;5571;48.110;-1.706;2024-02-21T00:37:14;4.37;;;2.60;;
11034;SDS011;5571;48.110;-1.706;2024-02-21T00:39:40;6.23;;;2.90;;
11034;SDS011;5571;48.110;-1.706;2024-02-21T00:42:07;3.27;;;2.60;;
11034;SDS011;5571;48.110;-1.706;2024-02-21T00:44:33;5.40;;;2.90;;
11034;SDS011;5571;48.110;-1.706;2024-02-21T00:46:58;5.40;;;2.67;;
11034;SDS011;5571;48.110;-1.706;2024-02-21T00:49:24;7.50;;;2.87;;
11034;SDS011;5571;48.110;-1.706;2024-02-21T00:51:49;8.50;;;3.20;;
11034;SDS011;5571;48.110;-1.706;2024-02-21T00:54:15;7.30;;;2.90;;
11034;SDS011;5571;48.110;-1.706;2024-02-21T00:56:41;6.90;;;2.93;;
11034;SDS011;5571;48.110;-1.706;2024-02-21T00:59:07;9.10;;;2.70;;
11034;SDS011;5571;48.110;-1.706;2024-02-21T01:01:33;8.03;;;2.77;;
11034;SDS011;5571;48.110;-1.706;2024-02-21T01:03:58;5.63;;;2.43;;
11034;SDS011;5571;48.110;-1.706;2024-02-21T01:06:25;5.67;;;3.00;;
11034;SDS011;5571;48.110;-1.706;2024-02-21T01:08:50;9.27;;;3.27;;
11034;SDS011;5571;48.110;-1.706;2024-02-21T01:11:16;6.87;;;2.70;;
11034;SDS011;5571;48.110;-1.706;2024-02-21T01:13:42;8.33;;;3.23;;
11034;SDS011;5571;48.110;-1.706;2024-02-21T01:16:08;6.57;;;2.83;;
11034;SDS011;5571;48.110;-1.706;2024-02-21T01:18:34;7.67;;;3.20;;
11034;SDS011;5571;48.110;-1.706;2024-02-21T01:21:01;6.43;;;3.30;;
11034;SDS011;5571;48.110;-1.706;2024-02-21T01:23:27;6.30;;;3.07;;
11034;SDS011;5571;48.110;-1.706;2024-02-21T01:25:53;9.77;;;3.70;;
11034;SDS011;5571;48.110;-1.706;2024-02-21T01:28:20;8.13;;;3.30;;
11034;SDS011;5571;48.110;-1.706;2024-02-21T01:30:45;8.07;;;3.40;;
11034;SDS011;5571;48.110;-1.706;2024-02-21T01:33:11;6.80;;;3.33;;
11034;SDS011;5571;48.110;-1.706;2024-02-21T01:35:37;3.53;;;2.97;;
11034;SDS011;5571;48.110;-1.706;2024-02-21T01:38:02;6.20;;;3.20;;
11034;SDS011;5571;48.110;-1.706;2024-02-21T01:40:29;5.80;;;3.30;;
11034;SDS011;5571;48.110;-1.706;2024-02-21T01:42:55;9.13;;;3.67;;
11034;SDS011;5571;48.110;-1.706;2024-02-21T01:45:21;7.90;;;3.47;;
11034;SDS011;5571;48.110;-1.706;2024-02-21T01:47:47;4.80;;;3.43;;
11034;SDS011;5571;48.110;-1.706;2024-02-21T01:50:14;8.67;;;3.80;;
11034;SDS011;5571;48.110;-1.706;2024-02-21T01:52:41;9.00;;;3.63;;
11034;SDS011;5571;48.110;-1.706;2024-02-21T01:55:09;5.73;;;3.50;;
11034;SDS011;5571;48.110;-1.706;2024-02-21T01:57:35;5.37;;;3.40;;
11034;SDS011;5571;48.110;-1.706;2024-02-21T02:00:01;5.13;;;3.23;;
11034;SDS011;5571;48.110;-1.706;2024-02-21T02:02:26;9.97;;;3.43;;
11034;SDS011;5571;48.110;-1.706;2024-02-21T02:04:52;6.23;;;2.77;;
11034;SDS011;5571;48.110;-1.706;2024-02-21T02:07:18;6.53;;;3.10;;
11034;SDS011;5571;48.110;-1.706;2024-02-21T02:09:43;8.10;;;3.27;;
11034;SDS011;5571;48.110;-1.706;2024-02-21T02:12:09;5.47;;;3.00;;
11034;SDS011;5571;48.110;-1.706;2024-02-21T02:14:35;7.17;;;3.00;;
11034;SDS011;5571;48.110;-1.706;2024-02-21T02:17:00;9.03;;;3.13;;
11034;SDS011;5571;48.110;-1.706;2024-02-21T02:19:26;8.60;;;2.90;;
11034;SDS011;5571;48.110;-1.706;2024-02-21T02:21:53;8.90;;;2.77;;
11034;SDS011;5571;48.110;-1.706;2024-02-21T02:24:24;7.50;;;2.50;;
11034;SDS011;5571;48.110;-1.706;2024-02-21T02:26:51;6.30;;;2.73;;
11034;SDS011;5571;48.110;-1.706;2024-02-21T02:29:16;3.37;;;2.30;;
11034;SDS011;5571;48.110;-1.706;2024-02-21T02:31:42;5.27;;;2.67;;
11034;SDS011;5571;48.110;-1.706;2024-02-21T02:34:08;4.30;;;2.60;;
11034;SDS011;5571;48.110;-1.706;2024-02-21T02:36:34;4.00;;;2.53;;
11034;SDS011;5571;48.110;-1.706;2024-02-21T02:39:00;7.23;;;2.80;;
11034;SDS011;5571;48.110;-1.706;2024-02-21T02:41:26;3.20;;;2.30;;
11034;SDS011;5571;48.110;-1.706;2024-02-21T02:43:52;3.83;;;2.70;;
11034;SDS011;5571;48.110;-1.706;2024-02-21T02:46:17;5.03;;;2.27;;
11034;SDS011;5571;48.110;-1.706;2024-02-21T02:48:43;3.57;;;2.20;;
11034;SDS011;5571;48.110;-1.706;2024-02-21T02:51:09;5.40;;;2.53;;
11034;SDS011;5571;48.110;-1.706;2024-02-21T02:53:35;6.03;;;2.80;;
11034;SDS011;5571;48.110;-1.706;2024-02-21T02:56:01;8.23;;;2.80;;
11034;SDS011;5571;48.110;-1.706;2024-02-21T02:58:27;4.50;;;2.00;;
11034;SDS011;5571;48.110;-1.706;2024-02-21T03:00:53;8.70;;;3.00;;
11034;SDS011;5571;48.110;-1.706;2024-02-21T03:03:19;4.67;;;2.77;;
11034;SDS011;5571;48.110;-1.706;2024-02-21T03:05:44;3.73;;;2.07;;
11034;SDS011;5571;48.110;-1.706;2024-02-21T03:08:11;5.83;;;2.70;;
11034;SDS011;5571;48.110;-1.706;2024-02-21T03:10:36;7.43;;;2.47;;
11034;SDS011;5571;48.110;-1.706;2024-02-21T03:13:02;4.13;;;2.20;;
11034;SDS011;5571;48.110;-1.706;2024-02-21T03:15:28;4.57;;;2.20;;
11034;SDS011;5571;48.110;-1.706;2024-02-21T03:17:54;7.63;;;2.40;;
11034;SDS011;5571;48.110;-1.706;2024-02-21T03:20:20;5.57;;;2.20;;
11034;SDS011;5571;48.110;-1.706;2024-02-21T03:22:45;5.27;;;2.40;;
11034;SDS011;5571;48.110;-1.706;2024-02-21T03:25:11;5.57;;;2.03;;
11034;SDS011;5571;48.110;-1.706;2024-02-21T03:27:37;2.33;;;1.90;;
11034;SDS011;5571;48.110;-1.706;2024-02-21T03:30:03;4.90;;;2.40;;
11034;SDS011;5571;48.110;-1.706;2024-02-21T03:32:29;4.80;;;1.73;;
11034;SDS011;5571;48.110;-1.706;2024-02-21T03:34:55;5.67;;;1.93;;
11034;SDS011;5571;48.110;-1.706;2024-02-21T03:37:21;6.60;;;1.97;;
11034;SDS011;5571;48.110;-1.706;2024-02-21T03:39:47;3.60;;;2.10;;
11034;SDS011;5571;48.110;-1.706;2024-02-21T03:42:12;4.57;;;1.90;;
11034;SDS011;5571;48.110;-1.706;2024-02-21T03:44:38;4.33;;;2.10;;
11034;SDS011;5571;48.110;-1.706;2024-02-21T03:47:04;5.87;;;2.07;;
11034;SDS011;5571;48.110;-1.706;2024-02-21T03:49:30;6.37;;;2.10;;
11034;SDS011;5571;48.110;-1.706;2024-02-21T03:51:55;6.50;;;2.57;;
11034;SDS011;5571;48.110;-1.706;2024-02-21T03:54:21;4.80;;;2.47;;
11034;SDS011;5571;48.110;-1.706;2024-02-21T03:56:47;3.80;;;2.03;;
11034;SDS011;5571;48.110;-1.706;2024-02-21T03:59:13;2.97;;;2.20;;
11034;SDS011;5571;48.110;-1.706;2024-02-21T04:01:39;5.77;;;2.30;;
11034;SDS011;5571;48.110;-1.706;2024-02-21T04:04:05;8.10;;;2.30;;
11034;SDS011;5571;48.110;-1.706;2024-02-21T04:06:31;6.57;;;2.30;;
11034;SDS011;5571;48.110;-1.706;2024-02-21T04:08:57;8.17;;;2.90;;
11034;SDS011;5571;48.110;-1.706;2024-02-21T04:11:23;6.23;;;2.83;;
11034;SDS011;5571;48.110;-1.706;2024-02-21T04:13:48;7.97;;;2.43;;
11034;SDS011;5571;48.110;-1.706;2024-02-21T04:16:15;9.47;;;2.80;;
11034;SDS011;5571;48.110;-1.706;2024-02-21T04:18:41;7.97;;;2.87;;
11034;SDS011;5571;48.110;-1.706;2024-02-21T04:21:08;2.90;;;2.60;;
11034;SDS011;5571;48.110;-1.706;2024-02-21T04:23:34;5.60;;;2.70;;
11034;SDS011;5571;48.110;-1.706;2024-02-21T04:25:59;6.83;;;2.77;;
11034;SDS011;5571;48.110;-1.706;2024-02-21T04:28:25;7.47;;;3.07;;
11034;SDS011;5571;48.110;-1.706;2024-02-21T04:30:51;4.87;;;3.07;;
11034;SDS011;5571;48.110;-1.706;2024-02-21T04:33:16;6.03;;;3.10;;
11034;SDS011;5571;48.110;-1.706;2024-02-21T04:35:42;7.27;;;3.20;;
11034;SDS011;5571;48.110;-1.706;2024-02-21T04:38:07;5.27;;;3.27;;
11034;SDS011;5571;48.110;-1.706;2024-02-21T04:40:33;5.67;;;3.17;;
11034;SDS011;5571;48.110;-1.706;2024-02-21T04:42:59;6.87;;;3.30;;
11034;SDS011;5571;48.110;-1.706;2024-02-21T04:45:24;6.63;;;3.57;;
11034;SDS011;5571;48.110;-1.706;2024-02-21T04:47:50;8.20;;;3.60;;
11034;SDS011;5571;48.110;-1.706;2024-02-21T04:50:15;7.27;;;3.17;;
11034;SDS011;5571;48.110;-1.706;2024-02-21T04:52:41;8.50;;;3.73;;
11034;SDS011;5571;48.110;-1.706;2024-02-21T04:55:07;7.63;;;3.30;;
11034;SDS011;5571;48.110;-1.706;2024-02-21T04:57:33;13.07;;;4.00;;
11034;SDS011;5571;48.110;-1.706;2024-02-21T04:59:59;5.83;;;3.80;;
11034;SDS011;5571;48.110;-1.706;2024-02-21T05:02:24;5.90;;;3.60;;
11034;SDS011;5571;48.110;-1.706;2024-02-21T05:04:51;7.77;;;3.80;;
11034;SDS011;5571;48.110;-1.706;2024-02-21T05:07:17;7.63;;;3.80;;
11034;SDS011;5571;48.110;-1.706;2024-02-21T05:09:44;7.93;;;3.90;;
11034;SDS011;5571;48.110;-1.706;2024-02-21T05:12:10;9.13;;;3.50;;
11034;SDS011;5571;48.110;-1.706;2024-02-21T05:14:36;6.70;;;3.43;;
11034;SDS011;5571;48.110;-1.706;2024-02-21T05:17:02;6.67;;;3.57;;
11034;SDS011;5571;48.110;-1.706;2024-02-21T05:19:28;8.43;;;3.23;;
11034;SDS011;5571;48.110;-1.706;2024-02-21T05:21:54;9.47;;;3.40;;
11034;SDS011;5571;48.110;-1.706;2024-02-21T05:24:19;10.33;;;3.37;;
11034;SDS011;5571;48.110;-1.706;2024-02-21T05:26:45;9.30;;;3.17;;
11034;SDS011;5571;48.110;-1.706;2024-02-21T05:29:11;11.50;;;3.87;;
11034;SDS011;5571;48.110;-1.706;2024-02-21T05:32:09;4.53;;;2.97;;
11034;SDS011;5571;48.110;-1.706;2024-02-21T05:34:28;8.93;;;3.20;;
11034;SDS011;5571;48.110;-1.706;2024-02-21T05:36:54;5.13;;;3.37;;
11034;SDS011;5571;48.110;-1.706;2024-02-21T05:39:20;8.17;;;3.50;;
11034;SDS011;5571;48.110;-1.706;2024-02-21T05:41:47;6.23;;;3.57;;
11034;SDS011;5571;48.110;-1.706;2024-02-21T05:44:13;12.30;;;3.80;;
11034;SDS011;5571;48.110;-1.706;2024-02-21T05:46:39;5.67;;;3.50;;
11034;SDS011;5571;48.110;-1.706;2024-02-21T05:49:04;8.90;;;4.00;;
11034;SDS011;5571;48.110;-1.706;2024-02-21T05:51:34;7.37;;;4.10;;
11034;SDS011;5571;48.110;-1.706;2024-02-21T05:54:00;7.93;;;3.83;;
11034;SDS011;5571;48.110;-1.706;2024-02-21T05:56:26;7.50;;;4.30;;
11034;SDS011;5571;48.110;-1.706;2024-02-21T05:58:52;5.57;;;3.57;;
11034;SDS011;5571;48.110;-1.706;2024-02-21T06:01:17;7.70;;;3.70;;
11034;SDS011;5571;48.110;-1.706;2024-02-21T06:03:43;10.30;;;3.87;;
11034;SDS011;5571;48.110;-1.706;2024-02-21T06:06:09;4.67;;;3.87;;
11034;SDS011;5571;48.110;-1.706;2024-02-21T06:08:34;3.63;;;3.27;;
11034;SDS011;5571;48.110;-1.706;2024-02-21T06:11:00;7.17;;;3.27;;
11034;SDS011;5571;48.110;-1.706;2024-02-21T06:13:26;6.37;;;3.50;;
11034;SDS011;5571;48.110;-1.706;2024-02-21T06:15:52;6.00;;;3.23;;
11034;SDS011;5571;48.110;-1.706;2024-02-21T06:18:17;5.87;;;3.33;;
11034;SDS011;5571;48.110;-1.706;2024-02-21T06:20:43;3.77;;;3.33;;
11034;SDS011;5571;48.110;-1.706;2024-02-21T06:23:11;5.70;;;3.20;;
11034;SDS011;5571;48.110;-1.706;2024-02-21T06:25:36;7.37;;;3.33;;
11034;SDS011;5571;48.110;-1.706;2024-02-21T06:28:02;6.83;;;3.40;;
11034;SDS011;5571;48.110;-1.706;2024-02-21T06:30:29;9.80;;;3.43;;
11034;SDS011;5571;48.110;-1.706;2024-02-21T06:32:54;8.90;;;3.40;;
11034;SDS011;5571;48.110;-1.706;2024-02-21T06:35:21;7.17;;;2.93;;
11034;SDS011;5571;48.110;-1.706;2024-02-21T06:37:46;6.67;;;2.87;;
11034;SDS011;5571;48.110;-1.706;2024-02-21T06:40:16;6.10;;;3.50;;
11034;SDS011;5571;48.110;-1.706;2024-02-21T06:42:48;9.93;;;3.53;;
11034;SDS011;5571;48.110;-1.706;2024-02-21T06:45:14;7.13;;;3.60;;
11034;SDS011;5571;48.110;-1.706;2024-02-21T06:47:40;7.43;;;3.53;;
11034;SDS011;5571;48.110;-1.706;2024-02-21T06:50:05;9.77;;;3.87;;
11034;SDS011;5571;48.110;-1.706;2024-02-21T06:52:31;5.70;;;3.20;;
11034;SDS011;5571;48.110;-1.706;2024-02-21T06:54:57;8.43;;;3.57;;
11034;SDS011;5571;48.110;-1.706;2024-02-21T06:57:22;7.30;;;3.13;;
11034;SDS011;5571;48.110;-1.706;2024-02-21T06:59:48;9.17;;;3.40;;
11034;SDS011;5571;48.110;-1.706;2024-02-21T07:02:14;9.57;;;3.70;;
11034;SDS011;5571;48.110;-1.706;2024-02-21T07:04:40;7.20;;;3.30;;
11034;SDS011;5571;48.110;-1.706;2024-02-21T07:07:05;5.97;;;3.60;;
11034;SDS011;5571;48.110;-1.706;2024-02-21T07:09:31;8.67;;;3.70;;
11034;SDS011;5571;48.110;-1.706;2024-02-21T07:11:59;8.93;;;3.80;;
11034;SDS011;5571;48.110;-1.706;2024-02-21T07:14:25;6.90;;;3.43;;
11034;SDS011;5571;48.110;-1.706;2024-02-21T07:16:53;6.03;;;3.40;;
11034;SDS011;5571;48.110;-1.706;2024-02-21T07:19:19;11.07;;;3.60;;
11034;SDS011;5571;48.110;-1.706;2024-02-21T07:21:44;9.60;;;4.00;;
11034;SDS011;5571;48.110;-1.706;2024-02-21T07:24:10;10.77;;;3.23;;
11034;SDS011;5571;48.110;-1.706;2024-02-21T07:26:36;9.73;;;3.90;;
11034;SDS011;5571;48.110;-1.706;2024-02-21T07:29:02;6.57;;;3.80;;
11034;SDS011;5571;48.110;-1.706;2024-02-21T07:31:27;9.10;;;3.83;;
11034;SDS011;5571;48.110;-1.706;2024-02-21T07:33:53;11.77;;;4.13;;
11034;SDS011;5571;48.110;-1.706;2024-02-21T07:36:30;22.87;;;4.23;;
11034;SDS011;5571;48.110;-1.706;2024-02-21T07:38:56;15.07;;;4.17;;
11034;SDS011;5571;48.110;-1.706;2024-02-21T07:41:21;10.73;;;3.83;;
11034;SDS011;5571;48.110;-1.706;2024-02-21T07:43:47;18.37;;;4.33;;
11034;SDS011;5571;48.110;-1.706;2024-02-21T07:46:13;10.33;;;4.10;;
11034;SDS011;5571;48.110;-1.706;2024-02-21T07:48:39;12.83;;;4.37;;
11034;SDS011;5571;48.110;-1.706;2024-02-21T07:51:05;14.77;;;3.70;;
11034;SDS011;5571;48.110;-1.706;2024-02-21T07:53:31;12.37;;;3.83;;
11034;SDS011;5571;48.110;-1.706;2024-02-21T07:55:56;15.63;;;3.97;;
11034;SDS011;5571;48.110;-1.706;2024-02-21T07:58:22;10.33;;;3.90;;
11034;SDS011;5571;48.110;-1.706;2024-02-21T08:00:47;12.53;;;4.47;;
11034;SDS011;5571;48.110;-1.706;2024-02-21T08:03:13;13.50;;;3.93;;
11034;SDS011;5571;48.110;-1.706;2024-02-21T08:05:40;14.70;;;4.10;;
11034;SDS011;5571;48.110;-1.706;2024-02-21T08:08:06;15.70;;;5.30;;
11034;SDS011;5571;48.110;-1.706;2024-02-21T08:10:33;12.97;;;4.03;;
11034;SDS011;5571;48.110;-1.706;2024-02-21T08:12:58;12.90;;;4.87;;
11034;SDS011;5571;48.110;-1.706;2024-02-21T08:15:24;10.07;;;4.43;;
11034;SDS011;5571;48.110;-1.706;2024-02-21T08:17:54;15.53;;;4.90;;
11034;SDS011;5571;48.110;-1.706;2024-02-21T08:20:24;18.43;;;4.73;;
11034;SDS011;5571;48.110;-1.706;2024-02-21T08:22:49;12.57;;;4.50;;
11034;SDS011;5571;48.110;-1.706;2024-02-21T08:25:15;12.67;;;4.33;;
11034;SDS011;5571;48.110;-1.706;2024-02-21T08:27:40;8.00;;;3.70;;
11034;SDS011;5571;48.110;-1.706;2024-02-21T08:30:06;16.40;;;4.50;;
11034;SDS011;5571;48.110;-1.706;2024-02-21T08:32:33;8.90;;;4.20;;
11034;SDS011;5571;48.110;-1.706;2024-02-21T08:35:00;12.63;;;4.33;;
11034;SDS011;5571;48.110;-1.706;2024-02-21T08:37:29;13.17;;;4.33;;
11034;SDS011;5571;48.110;-1.706;2024-02-21T08:39:54;14.07;;;4.37;;
11034;SDS011;5571;48.110;-1.706;2024-02-21T08:42:20;11.00;;;4.40;;
11034;SDS011;5571;48.110;-1.706;2024-02-21T08:44:46;11.70;;;4.40;;
11034;SDS011;5571;48.110;-1.706;2024-02-21T08:47:11;13.67;;;4.13;;
11034;SDS011;5571;48.110;-1.706;2024-02-21T08:49:37;8.40;;;4.40;;
11034;SDS011;5571;48.110;-1.706;2024-02-21T08:52:03;14.23;;;4.53;;
11034;SDS011;5571;48.110;-1.706;2024-02-21T08:54:30;11.57;;;4.27;;
11034;SDS011;5571;48.110;-1.706;2024-02-21T08:56:56;13.40;;;4.67;;
11034;SDS011;5571;48.110;-1.706;2024-02-21T08:59:22;11.03;;;4.20;;
11034;SDS011;5571;48.110;-1.706;2024-02-21T09:01:47;8.20;;;4.13;;
11034;SDS011;5571;48.110;-1.706;2024-02-21T09:04:13;13.53;;;4.47;;
11034;SDS011;5571;48.110;-1.706;2024-02-21T09:06:38;10.17;;;3.90;;
11034;SDS011;5571;48.110;-1.706;2024-02-21T09:09:07;12.20;;;4.53;;
11034;SDS011;5571;48.110;-1.706;2024-02-21T09:11:34;8.43;;;4.60;;
11034;SDS011;5571;48.110;-1.706;2024-02-21T09:13:59;9.60;;;4.10;;
11034;SDS011;5571;48.110;-1.706;2024-02-21T09:16:25;12.60;;;4.50;;
11034;SDS011;5571;48.110;-1.706;2024-02-21T09:18:51;9.53;;;4.07;;
11034;SDS011;5571;48.110;-1.706;2024-02-21T09:21:17;10.97;;;4.30;;
11034;SDS011;5571;48.110;-1.706;2024-02-21T09:23:43;8.57;;;4.30;;
11034;SDS011;5571;48.110;-1.706;2024-02-21T09:26:09;11.03;;;5.23;;
11034;SDS011;5571;48.110;-1.706;2024-02-21T09:28:38;18.33;;;5.27;;
11034;SDS011;5571;48.110;-1.706;2024-02-21T09:31:04;15.03;;;4.60;;
11034;SDS011;5571;48.110;-1.706;2024-02-21T09:33:30;8.87;;;4.37;;
11034;SDS011;5571;48.110;-1.706;2024-02-21T09:35:56;15.00;;;5.30;;
11034;SDS011;5571;48.110;-1.706;2024-02-21T09:38:21;13.03;;;4.50;;
11034;SDS011;5571;48.110;-1.706;2024-02-21T09:40:47;11.40;;;4.67;;
11034;SDS011;5571;48.110;-1.706;2024-02-21T09:43:18;14.17;;;4.33;;
11034;SDS011;5571;48.110;-1.706;2024-02-21T09:45:46;16.90;;;4.87;;
11034;SDS011;5571;48.110;-1.706;2024-02-21T09:50:53;10.87;;;4.00;;
11034;SDS011;5571;48.110;-1.706;2024-02-21T09:53:20;14.37;;;4.37;;
11034;SDS011;5571;48.110;-1.706;2024-02-21T09:55:46;15.23;;;4.60;;
11034;SDS011;5571;48.110;-1.706;2024-02-21T09:58:13;14.73;;;5.20;;
11034;SDS011;5571;48.110;-1.706;2024-02-21T10:00:39;17.40;;;4.47;;
11034;SDS011;5571;48.110;-1.706;2024-02-21T10:03:05;16.23;;;4.60;;
11034;SDS011;5571;48.110;-1.706;2024-02-21T10:05:33;13.50;;;4.20;;
11034;SDS011;5571;48.110;-1.706;2024-02-21T10:08:00;15.63;;;4.33;;
11034;SDS011;5571;48.110;-1.706;2024-02-21T10:10:26;13.00;;;3.87;;
11034;SDS011;5571;48.110;-1.706;2024-02-21T10:12:52;15.83;;;4.50;;
11034;SDS011;5571;48.110;-1.706;2024-02-21T10:15:23;21.90;;;4.87;;
11034;SDS011;5571;48.110;-1.706;2024-02-21T10:17:50;12.87;;;4.73;;
11034;SDS011;5571;48.110;-1.706;2024-02-21T10:20:24;11.93;;;4.27;;
11034;SDS011;5571;48.110;-1.706;2024-02-21T10:22:59;11.63;;;4.60;;
11034;SDS011;5571;48.110;-1.706;2024-02-21T10:25:34;14.37;;;4.57;;
11034;SDS011;5571;48.110;-1.706;2024-02-21T10:28:01;15.63;;;5.40;;
11034;SDS011;5571;48.110;-1.706;2024-02-21T10:30:28;18.73;;;4.50;;
11034;SDS011;5571;48.110;-1.706;2024-02-21T10:32:53;13.97;;;4.67;;
11034;SDS011;5571;48.110;-1.706;2024-02-21T10:35:29;19.17;;;5.17;;
11034;SDS011;5571;48.110;-1.706;2024-02-21T10:37:56;9.27;;;4.33;;
11034;SDS011;5571;48.110;-1.706;2024-02-21T10:40:26;13.80;;;4.80;;
11034;SDS011;5571;48.110;-1.706;2024-02-21T10:42:57;13.97;;;4.33;;
11034;SDS011;5571;48.110;-1.706;2024-02-21T10:45:27;16.57;;;5.03;;
11034;SDS011;5571;48.110;-1.706;2024-02-21T10:47:55;12.53;;;4.33;;
11034;SDS011;5571;48.110;-1.706;2024-02-21T10:50:26;12.37;;;4.00;;
11034;SDS011;5571;48.110;-1.706;2024-02-21T10:53:11;11.77;;;4.33;;
11034;SDS011;5571;48.110;-1.706;2024-02-21T10:58:44;14.53;;;5.13;;
11034;SDS011;5571;48.110;-1.706;2024-02-21T11:01:11;14.40;;;5.27;;
11034;SDS011;5571;48.110;-1.706;2024-02-21T11:03:40;15.43;;;4.57;;
11034;SDS011;5571;48.110;-1.706;2024-02-21T11:06:09;10.00;;;3.87;;
11034;SDS011;5571;48.110;-1.706;2024-02-21T11:08:37;11.73;;;3.63;;
11034;SDS011;5571;48.110;-1.706;2024-02-21T11:11:02;13.10;;;4.10;;
11034;SDS011;5571;48.110;-1.706;2024-02-21T11:13:40;14.37;;;4.23;;
11034;SDS011;5571;48.110;-1.706;2024-02-21T11:16:11;11.73;;;3.77;;
11034;SDS011;5571;48.110;-1.706;2024-02-21T11:18:37;9.73;;;3.50;;
11034;SDS011;5571;48.110;-1.706;2024-02-21T11:21:03;11.97;;;3.50;;
11034;SDS011;5571;48.110;-1.706;2024-02-21T11:23:32;11.60;;;3.77;;
11034;SDS011;5571;48.110;-1.706;2024-02-21T11:26:04;12.07;;;3.37;;
11034;SDS011;5571;48.110;-1.706;2024-02-21T11:28:33;13.63;;;3.60;;
11034;SDS011;5571;48.110;-1.706;2024-02-21T11:31:10;18.47;;;3.60;;
11034;SDS011;5571;48.110;-1.706;2024-02-21T11:33:39;11.60;;;3.63;;
11034;SDS011;5571;48.110;-1.706;2024-02-21T11:36:06;12.33;;;4.00;;
11034;SDS011;5571;48.110;-1.706;2024-02-21T11:38:32;10.43;;;3.70;;
11034;SDS011;5571;48.110;-1.706;2024-02-21T11:40:58;10.77;;;3.47;;
11034;SDS011;5571;48.110;-1.706;2024-02-21T11:43:23;8.50;;;3.40;;
11034;SDS011;5571;48.110;-1.706;2024-02-21T11:45:50;8.73;;;3.17;;
11034;SDS011;5571;48.110;-1.706;2024-02-21T11:48:23;10.80;;;3.30;;
11034;SDS011;5571;48.110;-1.706;2024-02-21T11:50:52;14.40;;;3.60;;
11034;SDS011;5571;48.110;-1.706;2024-02-21T11:53:20;10.13;;;3.03;;
11034;SDS011;5571;48.110;-1.706;2024-02-21T11:55:46;10.47;;;3.17;;
11034;SDS011;5571;48.110;-1.706;2024-02-21T11:58:11;11.83;;;4.03;;
11034;SDS011;5571;48.110;-1.706;2024-02-21T12:00:37;8.33;;;3.40;;
11034;SDS011;5571;48.110;-1.706;2024-02-21T12:03:03;9.60;;;3.70;;
11034;SDS011;5571;48.110;-1.706;2024-02-21T12:05:29;9.13;;;2.97;;
11034;SDS011;5571;48.110;-1.706;2024-02-21T12:07:56;11.20;;;3.17;;
11034;SDS011;5571;48.110;-1.706;2024-02-21T12:10:23;11.97;;;3.60;;
11034;SDS011;5571;48.110;-1.706;2024-02-21T12:12:51;9.60;;;3.30;;
11034;SDS011;5571;48.110;-1.706;2024-02-21T12:15:17;9.20;;;2.93;;
11034;SDS011;5571;48.110;-1.706;2024-02-21T12:17:43;8.87;;;2.60;;
11034;SDS011;5571;48.110;-1.706;2024-02-21T12:20:10;8.40;;;2.70;;
11034;SDS011;5571;48.110;-1.706;2024-02-21T12:22:39;7.80;;;2.53;;
11034;SDS011;5571;48.110;-1.706;2024-02-21T12:25:04;8.77;;;2.90;;
11034;SDS011;5571;48.110;-1.706;2024-02-21T12:27:43;12.87;;;2.97;;
11034;SDS011;5571;48.110;-1.706;2024-02-21T12:30:08;9.10;;;3.13;;
11034;SDS011;5571;48.110;-1.706;2024-02-21T12:32:35;10.57;;;2.87;;
11034;SDS011;5571;48.110;-1.706;2024-02-21T12:35:01;6.60;;;3.33;;
11034;SDS011;5571;48.110;-1.706;2024-02-21T12:37:27;7.90;;;2.80;;
11034;SDS011;5571;48.110;-1.706;2024-02-21T12:39:53;7.83;;;2.57;;
11034;SDS011;5571;48.110;-1.706;2024-02-21T12:42:19;8.43;;;2.60;;
11034;SDS011;5571;48.110;-1.706;2024-02-21T12:44:45;9.13;;;3.10;;
11034;SDS011;5571;48.110;-1.706;2024-02-21T12:47:11;9.07;;;2.50;;
11034;SDS011;5571;48.110;-1.706;2024-02-21T12:49:37;9.47;;;3.27;;
11034;SDS011;5571;48.110;-1.706;2024-02-21T12:52:02;10.20;;;2.80;;
11034;SDS011;5571;48.110;-1.706;2024-02-21T12:54:28;9.90;;;2.83;;
11034;SDS011;5571;48.110;-1.706;2024-02-21T12:56:55;8.63;;;3.00;;
11034;SDS011;5571;48.110;-1.706;2024-02-21T12:59:21;12.27;;;3.17;;
11034;SDS011;5571;48.110;-1.706;2024-02-21T13:01:47;7.57;;;2.97;;
11034;SDS011;5571;48.110;-1.706;2024-02-21T13:04:12;8.00;;;2.73;;
11034;SDS011;5571;48.110;-1.706;2024-02-21T13:06:38;8.87;;;2.97;;
11034;SDS011;5571;48.110;-1.706;2024-02-21T13:09:04;8.33;;;2.73;;
11034;SDS011;5571;48.110;-1.706;2024-02-21T13:11:33;10.00;;;3.00;;
11034;SDS011;5571;48.110;-1.706;2024-02-21T13:13:59;5.37;;;2.40;;
11034;SDS011;5571;48.110;-1.706;2024-02-21T13:16:25;11.23;;;3.23;;
11034;SDS011;5571;48.110;-1.706;2024-02-21T13:18:53;9.67;;;2.87;;
11034;SDS011;5571;48.110;-1.706;2024-02-21T13:21:19;9.57;;;3.40;;
11034;SDS011;5571;48.110;-1.706;2024-02-21T13:23:45;11.47;;;3.23;;
11034;SDS011;5571;48.110;-1.706;2024-02-21T13:26:10;9.63;;;2.83;;
11034;SDS011;5571;48.110;-1.706;2024-02-21T13:28:37;11.13;;;3.17;;
11034;SDS011;5571;48.110;-1.706;2024-02-21T13:31:03;10.73;;;3.30;;
11034;SDS011;5571;48.110;-1.706;2024-02-21T13:33:29;9.30;;;3.57;;
11034;SDS011;5571;48.110;-1.706;2024-02-21T13:35:54;8.47;;;4.03;;
11034;SDS011;5571;48.110;-1.706;2024-02-21T13:38:20;9.70;;;2.80;;
11034;SDS011;5571;48.110;-1.706;2024-02-21T13:40:45;8.27;;;3.37;;
11034;SDS011;5571;48.110;-1.706;2024-02-21T13:43:11;6.70;;;3.43;;
11034;SDS011;5571;48.110;-1.706;2024-02-21T13:45:37;8.80;;;3.47;;
11034;SDS011;5571;48.110;-1.706;2024-02-21T13:48:04;12.20;;;3.83;;
11034;SDS011;5571;48.110;-1.706;2024-02-21T13:50:31;10.80;;;3.30;;
11034;SDS011;5571;48.110;-1.706;2024-02-21T13:52:57;10.83;;;3.83;;
11034;SDS011;5571;48.110;-1.706;2024-02-21T13:55:23;9.20;;;3.23;;
11034;SDS011;5571;48.110;-1.706;2024-02-21T13:57:52;13.60;;;3.40;;
11034;SDS011;5571;48.110;-1.706;2024-02-21T14:00:18;9.23;;;3.47;;
11034;SDS011;5571;48.110;-1.706;2024-02-21T14:02:45;11.20;;;4.27;;
11034;SDS011;5571;48.110;-1.706;2024-02-21T14:05:11;14.27;;;3.90;;
11034;SDS011;5571;48.110;-1.706;2024-02-21T14:07:38;12.83;;;3.57;;
11034;SDS011;5571;48.110;-1.706;2024-02-21T14:10:04;14.80;;;3.73;;
11034;SDS011;5571;48.110;-1.706;2024-02-21T14:12:30;8.87;;;3.60;;
11034;SDS011;5571;48.110;-1.706;2024-02-21T14:14:57;10.17;;;3.50;;
11034;SDS011;5571;48.110;-1.706;2024-02-21T14:17:23;13.67;;;3.40;;
11034;SDS011;5571;48.110;-1.706;2024-02-21T14:19:49;13.27;;;3.33;;
11034;SDS011;5571;48.110;-1.706;2024-02-21T14:22:16;13.13;;;4.00;;
11034;SDS011;5571;48.110;-1.706;2024-02-21T14:24:42;8.73;;;3.37;;
11034;SDS011;5571;48.110;-1.706;2024-02-21T14:27:07;9.70;;;3.53;;
11034;SDS011;5571;48.110;-1.706;2024-02-21T14:29:34;9.67;;;3.63;;
11034;SDS011;5571;48.110;-1.706;2024-02-21T14:31:59;9.90;;;4.10;;
11034;SDS011;5571;48.110;-1.706;2024-02-21T14:34:25;8.17;;;3.43;;
11034;SDS011;5571;48.110;-1.706;2024-02-21T14:36:51;11.93;;;3.60;;
11034;SDS011;5571;48.110;-1.706;2024-02-21T14:39:17;13.40;;;3.93;;
11034;SDS011;5571;48.110;-1.706;2024-02-21T14:41:42;10.93;;;3.77;;
11034;SDS011;5571;48.110;-1.706;2024-02-21T14:44:08;10.87;;;3.40;;